Time;durP1;ratioP1;P1;durP2;ratioP2;P2;SDS_P1;SDS_P2;PMS_P1;PMS_P2;Temp;Humidity;BMP_temperature;BMP_pressure;BME280_temperature;BME280_humidity;BME280_pressure;Samples;Min_cycle;Max_cycle;Signal;HPM_P1;HPM_P2
2022/04/12 00:03:39;;;;;;;;;;;;;;;0.38;73.37;99625.94;8401710;28;20066;-73
2022/04/12 00:07:40;;;;;;;;;;;;;;;0.36;72.90;99622.72;8407218;28;19977;-73
2022/04/12 00:11:42;;;;;;;;;;;;;;;0.22;73.67;99623.94;8402424;28;19998;-73
2022/04/12 00:15:43;;;;;;;;;;;;;;;0.24;73.35;99619.22;8394045;28;20449;-74
2022/04/12 00:19:43;;;;;;;;;;;;;;;0.26;73.25;99627.78;8418182;28;19978;-74
2022/04/12 00:23:44;;;;;;;;;;;;;;;0.25;73.53;99620.84;8399230;28;20017;-73
2022/04/12 00:27:45;;;;;;;;;;;;;;;0.23;73.32;99628.22;8394136;28;19974;-73
2022/04/12 00:31:46;;;;;;;;;;;;;;;0.20;73.12;99612.75;8414017;28;19990;-73
2022/04/12 00:35:46;;;;;;;;;;;;;;;0.16;74.00;99616.88;8394863;28;20398;-73
2022/04/12 00:39:47;;;;;;;;;;;;;;;0.14;73.47;99621.63;8399526;28;20047;-73
2022/04/12 00:43:48;;;;;;;;;;;;;;;0.10;74.03;99620.47;8401213;28;20426;-73
2022/04/12 00:47:49;;;;;;;;;;;;;;;0.08;73.63;99627.84;8393647;28;20027;-73
2022/04/12 00:51:50;;;;;;;;;;;;;;;0.09;73.41;99629.47;8396228;28;20027;-73
2022/04/12 00:55:51;;;;;;;;;;;;;;;0.05;73.36;99641.59;8394573;28;20338;-73
2022/04/12 00:59:54;;;;;;;;;;;;;;;0.01;74.15;99635.09;8402494;28;20040;-73
2022/04/12 01:03:55;;;;;;;;;;;;;;;-0.04;74.35;99637.63;8398718;28;20018;-73
2022/04/12 01:07:56;;;;;;;;;;;;;;;-0.06;74.33;99645.03;8398307;28;19974;-73
2022/04/12 01:11:57;;;;;;;;;;;;;;;-0.13;74.69;99639.00;8361637;28;19987;-74
2022/04/12 01:15:58;;;;;;;;;;;;;;;-0.13;74.71;99633.69;8395274;28;20340;-73
2022/04/12 01:19:59;;;;;;;;;;;;;;;-0.15;74.36;99635.75;8361825;28;20062;-74
2022/04/12 01:24:00;;;;;;;;;;;;;;;-0.12;74.34;99640.63;8345227;28;20013;-73
2022/04/12 01:28:01;;;;;;;;;;;;;;;-0.13;73.89;99644.31;8394917;28;20325;-74
2022/04/12 01:32:07;;;;;;;;;;;;;;;-0.14;74.15;99648.00;8394973;28;19991;-74
2022/04/12 01:36:08;;;;;;;;;;;;;;;-0.16;74.39;99644.75;8399487;28;19969;-74
2022/04/12 01:40:09;;;;;;;;;;;;;;;-0.17;74.42;99648.44;8398402;28;20024;-74
2022/04/12 01:44:10;;;;;;;;;;;;;;;-0.18;74.43;99646.81;8398421;28;19971;-73
2022/04/12 01:48:11;;;;;;;;;;;;;;;-0.22;74.88;99645.66;8398808;28;19971;-73
2022/04/12 01:52:12;;;;;;;;;;;;;;;-0.25;75.15;99640.78;8397977;28;20458;-73
2022/04/12 01:56:13;;;;;;;;;;;;;;;-0.28;74.74;99651.88;8398561;28;20001;-74
2022/04/12 02:00:13;;;;;;;;;;;;;;;-0.32;74.95;99646.22;8397918;28;20399;-73
2022/04/12 02:04:14;;;;;;;;;;;;;;;-0.36;74.85;99649.50;8398275;28;19971;-74
2022/04/12 02:08:15;;;;;;;;;;;;;;;-0.37;74.76;99647.91;8395893;28;19967;-73
2022/04/12 02:12:16;;;;;;;;;;;;;;;-0.37;74.47;99658.53;8396992;28;19987;-74
2022/04/12 02:16:18;;;;;;;;;;;;;;;-0.40;75.05;99643.03;8416556;28;20451;-73
2022/04/12 02:20:18;;;;;;;;;;;;;;;-0.43;74.99;99634.50;8394485;28;19978;-73
2022/04/12 02:24:19;;;;;;;;;;;;;;;-0.47;75.13;99643.94;8398618;28;20331;-73
2022/04/12 02:28:20;;;;;;;;;;;;;;;-0.50;75.13;99644.38;8397407;28;20108;-73
2022/04/12 02:32:21;;;;;;;;;;;;;;;-0.53;75.46;99634.22;8396961;28;19986;-73
2022/04/12 02:36:21;;;;;;;;;;;;;;;-0.53;75.58;99639.50;8396813;28;20001;-73
2022/04/12 02:40:22;;;;;;;;;;;;;;;-0.56;75.36;99639.16;8396903;28;19967;-73
2022/04/12 02:44:23;;;;;;;;;;;;;;;-0.60;75.77;99644.13;8411343;28;20017;-73
2022/04/12 02:48:24;;;;;;;;;;;;;;;-0.61;75.63;99641.69;8396583;28;19978;-73
2022/04/12 02:52:25;;;;;;;;;;;;;;;-0.64;75.47;99637.66;8396268;28;20023;-74
2022/04/12 02:56:26;;;;;;;;;;;;;;;-0.69;76.00;99645.47;8395906;28;20006;-73
2022/04/12 03:00:26;;;;;;;;;;;;;;;-0.68;75.63;99636.44;8396103;28;19998;-73
2022/04/12 03:04:27;;;;;;;;;;;;;;;-0.66;75.54;99641.53;8395969;28;20342;-74
2022/04/12 03:08:28;;;;;;;;;;;;;;;-0.66;74.81;99639.69;8393552;28;19999;-73
2022/04/12 03:12:29;;;;;;;;;;;;;;;-0.67;74.96;99648.69;8395483;28;19998;-73
2022/04/12 03:16:30;;;;;;;;;;;;;;;-0.65;74.77;99641.31;8394917;28;19971;-73
2022/04/12 03:20:31;;;;;;;;;;;;;;;-0.65;74.49;99629.91;8392785;28;20070;-73
2022/04/12 03:24:31;;;;;;;;;;;;;;;-0.68;74.93;99641.75;8394526;28;19971;-73
2022/04/12 03:28:33;;;;;;;;;;;;;;;-0.71;74.98;99634.25;8382774;28;20426;-73
2022/04/12 03:32:34;;;;;;;;;;;;;;;-0.72;74.69;99632.63;8372830;28;19984;-73
2022/04/12 03:36:36;;;;;;;;;;;;;;;-0.73;74.95;99628.34;8394608;28;19967;-73
2022/04/12 03:40:36;;;;;;;;;;;;;;;-0.74;74.97;99639.19;8389596;28;19974;-74
2022/04/12 03:44:37;;;;;;;;;;;;;;;-0.76;75.10;99639.41;8396188;28;19977;-74
2022/04/12 03:48:38;;;;;;;;;;;;;;;-0.78;75.34;99646.75;8391681;28;19971;-74
2022/04/12 03:52:39;;;;;;;;;;;;;;;-0.79;75.03;99655.75;8394087;28;19991;-74
2022/04/12 03:56:42;;;;;;;;;;;;;;;-0.80;75.30;99654.16;8393903;28;20410;-74
2022/04/12 04:00:43;;;;;;;;;;;;;;;-0.82;75.24;99656.19;8393151;28;19971;-74
2022/04/12 04:04:45;;;;;;;;;;;;;;;-0.83;75.79;99659.88;8388017;28;20399;-74
2022/04/12 04:08:46;;;;;;;;;;;;;;;-0.86;76.65;99660.34;8395272;28;19978;-74
2022/04/12 04:12:47;;;;;;;;;;;;;;;-0.85;76.91;99669.91;8373880;28;20018;-74
2022/04/12 04:16:48;;;;;;;;;;;;;;;-0.83;76.33;99665.19;8391193;28;19967;-74
2022/04/12 04:20:48;;;;;;;;;;;;;;;-0.81;76.99;99668.44;8393383;28;20066;-74
2022/04/12 04:24:49;;;;;;;;;;;;;;;-0.83;76.35;99670.50;8393603;28;20461;-74
2022/04/12 04:28:51;;;;;;;;;;;;;;;-0.80;76.75;99679.84;8386793;28;20506;-75
2022/04/12 04:32:52;;;;;;;;;;;;;;;-0.75;77.64;99683.47;8393903;28;20385;-75
2022/04/12 04:36:52;;;;;;;;;;;;;;;-0.65;78.07;99683.75;8400102;28;20069;-74
2022/04/12 04:40:53;;;;;;;;;;;;;;;-0.55;77.37;99694.66;8400852;28;20423;-74
2022/04/12 04:44:54;;;;;;;;;;;;;;;-0.45;77.28;99694.94;8400650;28;20061;-74
2022/04/12 04:48:55;;;;;;;;;;;;;;;-0.33;77.05;99697.66;8400751;28;20013;-74
2022/04/12 04:52:56;;;;;;;;;;;;;;;-0.24;76.67;99700.81;8399591;28;20036;-75
2022/04/12 04:56:57;;;;;;;;;;;;;;;-0.12;76.84;99699.03;8400090;28;20357;-74
2022/04/12 05:00:58;;;;;;;;;;;;;;;0.00;77.06;99702.53;8399865;28;19974;-74
2022/04/12 05:05:01;;;;;;;;;;;;;;;0.11;76.55;99715.03;8399758;28;19968;-74
2022/04/12 05:09:02;;;;;;;;;;;;;;;0.24;76.59;99714.84;8399133;28;20100;-74
2022/04/12 05:13:03;;;;;;;;;;;;;;;0.41;76.53;99721.13;8397685;28;20104;-74
2022/04/12 05:17:03;;;;;;;;;;;;;;;0.57;76.15;99718.84;8399487;28;20311;-74
2022/04/12 05:21:04;;;;;;;;;;;;;;;0.71;76.27;99730.88;8399421;28;20457;-74
2022/04/12 05:25:05;;;;;;;;;;;;;;;0.85;76.12;99726.97;8398910;28;19971;-74
2022/04/12 05:29:06;;;;;;;;;;;;;;;1.00;75.53;99732.66;8398071;28;20000;-75
2022/04/12 05:33:07;;;;;;;;;;;;;;;1.15;75.47;99727.69;8397568;28;20521;-74
2022/04/12 05:37:08;;;;;;;;;;;;;;;1.33;75.81;99733.91;8397789;28;20469;-74
2022/04/12 05:41:13;;;;;;;;;;;;;;;1.50;75.56;99732.94;8396961;28;20429;-74
2022/04/12 05:45:14;;;;;;;;;;;;;;;1.67;75.33;99730.38;8397456;28;20064;-75
2022/04/12 05:49:15;;;;;;;;;;;;;;;1.87;75.13;99736.09;8398579;28;19978;-74
2022/04/12 05:53:16;;;;;;;;;;;;;;;2.08;76.00;99732.78;8397950;28;20015;-75
2022/04/12 05:57:16;;;;;;;;;;;;;;;2.30;76.41;99729.44;8399397;28;19975;-75
2022/04/12 06:01:17;;;;;;;;;;;;;;;2.51;76.18;99731.41;8398309;28;20049;-75
2022/04/12 06:05:18;;;;;;;;;;;;;;;2.70;76.24;99737.31;8397721;28;20061;-74
2022/04/12 06:09:20;;;;;;;;;;;;;;;2.89;75.75;99739.53;8397284;28;19991;-75
2022/04/12 06:13:20;;;;;;;;;;;;;;;3.16;75.49;99754.88;8397500;28;19994;-74
2022/04/12 06:17:22;;;;;;;;;;;;;;;3.32;74.97;99751.38;8398280;28;20066;-75
2022/04/12 06:21:23;;;;;;;;;;;;;;;3.60;74.81;99755.72;8397230;28;19975;-75
2022/04/12 06:25:24;;;;;;;;;;;;;;;3.78;74.26;99764.28;8411367;28;19979;-74
2022/04/12 06:29:24;;;;;;;;;;;;;;;3.93;73.82;99768.19;8396307;28;20353;-75
2022/04/12 06:33:28;;;;;;;;;;;;;;;4.15;72.67;99758.28;8395400;28;19990;-74
2022/04/12 06:37:29;;;;;;;;;;;;;;;4.44;71.31;99767.66;8397087;28;20026;-75
2022/04/12 06:41:30;;;;;;;;;;;;;;;4.66;70.60;99771.09;8396951;28;19978;-74
2022/04/12 06:45:31;;;;;;;;;;;;;;;4.86;69.82;99767.00;8396740;28;20007;-76
2022/04/12 06:49:32;;;;;;;;;;;;;;;5.04;68.63;99771.97;8397444;28;19978;-76
2022/04/12 06:53:34;;;;;;;;;;;;;;;5.22;66.80;99774.25;8396070;28;20081;-77
2022/04/12 06:57:35;;;;;;;;;;;;;;;5.37;65.86;99782.38;8394612;28;19978;-76
2022/04/12 07:01:36;;;;;;;;;;;;;;;5.53;64.96;99786.78;8397070;28;20501;-76
2022/04/12 07:05:37;;;;;;;;;;;;;;;5.71;63.56;99787.41;8396497;28;19978;-76
2022/04/12 07:09:37;;;;;;;;;;;;;;;5.90;63.69;99791.28;8396482;28;19998;-76
2022/04/12 07:13:38;;;;;;;;;;;;;;;6.17;63.13;99786.56;8396289;28;19987;-76
2022/04/12 07:17:39;;;;;;;;;;;;;;;6.33;62.15;99795.47;8396295;28;20062;-76
2022/04/12 07:21:40;;;;;;;;;;;;;;;6.42;62.26;99804.59;8394680;28;19971;-76
2022/04/12 07:25:40;;;;;;;;;;;;;;;6.59;61.63;99799.03;8409862;28;19971;-76
2022/04/12 07:29:42;;;;;;;;;;;;;;;6.74;60.40;99801.72;8395618;28;20342;-74
2022/04/12 07:33:42;;;;;;;;;;;;;;;6.98;58.41;99797.44;8394283;28;19983;-74
2022/04/12 07:37:43;;;;;;;;;;;;;;;7.16;57.64;99810.34;8394218;28;20405;-74
2022/04/12 07:41:45;;;;;;;;;;;;;;;7.38;55.94;99817.31;8395037;28;20125;-73
2022/04/12 07:45:46;;;;;;;;;;;;;;;7.49;54.97;99813.53;8395035;28;19982;-74
2022/04/12 07:49:47;;;;;;;;;;;;;;;7.72;55.02;99821.00;8395083;28;20453;-73
2022/04/12 07:53:48;;;;;;;;;;;;;;;7.76;54.03;99818.59;8409110;28;20026;-73
2022/04/12 07:57:48;;;;;;;;;;;;;;;7.92;53.07;99812.09;8393539;28;20062;-75
2022/04/12 08:01:49;;;;;;;;;;;;;;;8.04;52.03;99816.09;8392887;28;19967;-73
2022/04/12 08:05:50;;;;;;;;;;;;;;;8.20;50.74;99818.72;8395332;28;19975;-74
2022/04/12 08:09:51;;;;;;;;;;;;;;;8.25;49.84;99816.03;8393594;28;20005;-73
2022/04/12 08:13:53;;;;;;;;;;;;;;;8.52;49.77;99821.81;8394599;28;19997;-74
2022/04/12 08:17:54;;;;;;;;;;;;;;;8.66;47.87;99817.44;8393415;28;20025;-73
2022/04/12 08:21:55;;;;;;;;;;;;;;;8.72;48.19;99815.53;8394499;28;19975;-73
2022/04/12 08:25:56;;;;;;;;;;;;;;;8.96;45.93;99821.00;8394415;28;20292;-73
2022/04/12 08:29:56;;;;;;;;;;;;;;;8.90;45.87;99812.97;8392552;28;20010;-74
2022/04/12 08:33:57;;;;;;;;;;;;;;;9.09;47.35;99815.00;8394613;28;20034;-73
2022/04/12 08:37:58;;;;;;;;;;;;;;;9.22;47.31;99825.13;8393550;28;20014;-74
2022/04/12 08:42:03;;;;;;;;;;;;;;;9.44;45.51;99828.19;8394324;28;20019;-74
2022/04/12 08:46:04;;;;;;;;;;;;;;;9.55;45.06;99829.69;8394164;28;19975;-74
2022/04/12 08:50:06;;;;;;;;;;;;;;;9.62;44.69;99824.75;8392611;28;20377;-74
2022/04/12 08:54:08;;;;;;;;;;;;;;;9.66;44.34;99825.81;8392243;28;20129;-74
2022/04/12 08:58:09;;;;;;;;;;;;;;;9.68;45.28;99829.00;8393057;28;20070;-74
2022/04/12 09:02:10;;;;;;;;;;;;;;;9.81;45.18;99818.66;8392634;28;19975;-74
2022/04/12 09:06:11;;;;;;;;;;;;;;;10.10;44.98;99822.06;8392996;28;19990;-76
2022/04/12 09:10:12;;;;;;;;;;;;;;;10.20;43.89;99813.91;8391278;28;20474;-75
2022/04/12 09:14:15;;;;;;;;;;;;;;;10.24;43.63;99819.53;8392591;28;20111;-74
2022/04/12 09:18:32;;;;;;;;;;;;;;;10.35;44.32;99811.03;8392860;28;20470;-75
2022/04/12 09:22:34;;;;;;;;;;;;;;;10.52;43.77;99827.50;8398651;28;20013;-75
2022/04/12 09:26:35;;;;;;;;;;;;;;;10.63;42.83;99827.41;8398691;28;19967;-75
2022/04/12 09:30:37;;;;;;;;;;;;;;;10.63;42.71;99806.56;8398919;28;19971;-75
2022/04/12 09:34:37;;;;;;;;;;;;;;;10.99;43.32;99814.97;8396915;28;19986;-75
2022/04/12 09:38:39;;;;;;;;;;;;;;;11.02;42.97;99814.38;8398452;28;19965;-76
2022/04/12 09:42:43;;;;;;;;;;;;;;;11.08;43.21;99810.50;8398158;28;19968;-76
2022/04/12 09:46:44;;;;;;;;;;;;;;;11.09;41.42;99816.72;8398055;28;19974;-74
2022/04/12 09:50:45;;;;;;;;;;;;;;;11.22;40.31;99808.63;8398057;28;20427;-75
2022/04/12 09:54:46;;;;;;;;;;;;;;;11.33;40.95;99812.78;8430184;28;20034;-75
2022/04/12 09:58:48;;;;;;;;;;;;;;;11.36;42.11;99809.50;8396454;28;20004;-74
2022/04/12 10:02:48;;;;;;;;;;;;;;;11.55;40.87;99811.34;8396220;28;20433;-75
2022/04/12 10:06:49;;;;;;;;;;;;;;;11.59;41.45;99804.22;8397718;28;19976;-74
2022/04/12 10:10:50;;;;;;;;;;;;;;;11.73;41.64;99807.81;8396227;28;19987;-75
2022/04/12 10:14:51;;;;;;;;;;;;;;;11.76;41.44;99801.78;8396514;28;19976;-75
2022/04/12 10:18:53;;;;;;;;;;;;;;;11.66;41.60;99791.13;8396938;28;20062;-75
2022/04/12 10:22:54;;;;;;;;;;;;;;;11.87;42.12;99786.94;8394473;28;19967;-75
2022/04/12 10:26:55;;;;;;;;;;;;;;;12.01;41.33;99782.34;8395382;28;20449;-74
2022/04/12 10:31:03;;;;;;;;;;;;;;;12.24;40.71;99781.31;8394853;28;20045;-76
2022/04/12 10:35:04;;;;;;;;;;;;;;;12.36;41.09;99777.28;8396676;28;20484;-75
2022/04/12 10:39:10;;;;;;;;;;;;;;;12.39;38.32;99782.09;8396677;28;19975;-74
2022/04/12 10:43:14;;;;;;;;;;;;;;;12.42;38.93;99776.09;8395104;28;20065;-75
2022/04/12 10:47:22;;;;;;;;;;;;;;;12.58;39.20;99775.41;8394139;28;19967;-75
2022/04/12 10:51:30;;;;;;;;;;;;;;;12.87;39.11;99772.31;8395966;28;19974;-75
2022/04/12 10:55:32;;;;;;;;;;;;;;;12.90;37.16;99777.09;8395335;28;19971;-75
2022/04/12 10:59:40;;;;;;;;;;;;;;;12.62;35.23;99772.91;8395140;28;20469;-75
2022/04/12 11:03:40;;;;;;;;;;;;;;;12.69;35.92;99760.53;8395536;28;19967;-75
2022/04/12 11:07:41;;;;;;;;;;;;;;;12.93;37.24;99754.81;8410087;28;19971;-75
2022/04/12 11:11:44;;;;;;;;;;;;;;;13.15;36.64;99755.97;8395157;28;20048;-75
2022/04/12 11:15:49;;;;;;;;;;;;;;;13.16;36.06;99752.16;8394194;28;20351;-75
2022/04/12 11:19:52;;;;;;;;;;;;;;;13.23;36.37;99752.47;8356728;28;20108;-75
2022/04/12 11:23:56;;;;;;;;;;;;;;;13.25;36.49;99744.84;8395207;28;19971;-76
2022/04/12 11:27:58;;;;;;;;;;;;;;;13.33;36.98;99735.94;8395261;28;19977;-76
2022/04/12 11:31:59;;;;;;;;;;;;;;;13.48;36.28;99732.84;8394460;28;20093;-75
2022/04/12 11:35:59;;;;;;;;;;;;;;;13.57;34.02;99736.41;8394532;28;19974;-75
2022/04/12 11:40:03;;;;;;;;;;;;;;;13.39;32.79;99734.69;8395109;28;20001;-76
2022/04/12 11:44:05;;;;;;;;;;;;;;;13.47;33.51;99734.75;8392002;28;19996;-75
2022/04/12 11:48:06;;;;;;;;;;;;;;;13.44;32.88;99737.28;8394645;28;19971;-75
2022/04/12 11:52:10;;;;;;;;;;;;;;;13.64;33.69;99731.28;8394379;28;19991;-76
2022/04/12 11:56:11;;;;;;;;;;;;;;;13.85;34.60;99737.75;8394110;28;19978;-75
2022/04/12 12:00:12;;;;;;;;;;;;;;;14.00;34.82;99728.41;8394108;28;19971;-75
2022/04/12 12:04:13;;;;;;;;;;;;;;;14.15;35.10;99729.88;8393846;28;19971;-74
2022/04/12 12:08:18;;;;;;;;;;;;;;;14.38;35.50;99728.66;8393826;28;19971;-74
2022/04/12 12:12:19;;;;;;;;;;;;;;;14.25;34.32;99724.13;8393969;28;19991;-74
2022/04/12 12:16:20;;;;;;;;;;;;;;;14.38;34.27;99717.78;8393014;28;20376;-75
2022/04/12 12:20:22;;;;;;;;;;;;;;;14.54;33.74;99710.72;8395066;28;19967;-74
2022/04/12 12:24:23;;;;;;;;;;;;;;;14.62;33.36;99709.94;8393734;28;20427;-75
2022/04/12 12:28:27;;;;;;;;;;;;;;;14.74;33.37;99720.97;8393317;28;19973;-76
2022/04/12 12:32:37;;;;;;;;;;;;;;;14.80;32.10;99714.22;8393162;28;20027;-75
2022/04/12 12:36:38;;;;;;;;;;;;;;;14.69;30.05;99713.00;8388174;28;19975;-76
2022/04/12 12:40:40;;;;;;;;;;;;;;;14.64;30.54;99715.88;8393294;28;20544;-76
2022/04/12 12:44:41;;;;;;;;;;;;;;;14.89;33.30;99716.16;8393963;28;20403;-75
2022/04/12 12:48:44;;;;;;;;;;;;;;;15.05;30.84;99715.34;8390952;28;19967;-75
2022/04/12 12:52:45;;;;;;;;;;;;;;;15.10;32.32;99717.09;8395012;28;19983;-75
2022/04/12 12:56:47;;;;;;;;;;;;;;;15.37;31.72;99710.44;8400154;28;19967;-75
2022/04/12 13:00:48;;;;;;;;;;;;;;;15.40;31.92;99712.50;8391057;28;19978;-74
2022/04/12 13:04:52;;;;;;;;;;;;;;;15.19;29.30;99704.25;8399606;28;19982;-75
2022/04/12 13:08:53;;;;;;;;;;;;;;;15.24;31.55;99706.78;8397587;28;20021;-75
2022/04/12 13:12:54;;;;;;;;;;;;;;;15.43;31.13;99709.94;8397829;28;19983;-75
2022/04/12 13:16:55;;;;;;;;;;;;;;;15.65;29.68;99708.13;8397091;28;20021;-75
2022/04/12 13:20:56;;;;;;;;;;;;;;;15.66;29.16;99701.53;8400246;28;20434;-74
2022/04/12 13:24:57;;;;;;;;;;;;;;;15.92;29.82;99699.47;8399186;28;19999;-75
2022/04/12 13:28:58;;;;;;;;;;;;;;;16.97;27.91;99701.91;8397781;28;19967;-75
2022/04/12 13:32:59;;;;;;;;;;;;;;;17.90;27.35;99706.59;8397010;28;20362;-75
2022/04/12 13:37:00;;;;;;;;;;;;;;;19.36;27.33;99706.09;8398235;28;20062;-75
2022/04/12 13:41:01;;;;;;;;;;;;;;;20.15;25.26;99704.09;8397176;28;20009;-75
2022/04/12 13:45:02;;;;;;;;;;;;;;;21.15;24.17;99691.31;8397099;28;19979;-74
2022/04/12 13:49:03;;;;;;;;;;;;;;;21.85;23.71;99696.41;8399328;28;20423;-75
2022/04/12 13:53:04;;;;;;;;;;;;;;;21.76;23.11;99693.13;8399095;28;19991;-75
2022/04/12 13:57:05;;;;;;;;;;;;;;;22.27;22.16;99691.56;8399170;28;20385;-75
2022/04/12 14:01:07;;;;;;;;;;;;;;;23.35;22.95;99669.59;8398810;28;20036;-75
2022/04/12 14:05:08;;;;;;;;;;;;;;;23.31;21.41;99671.53;8397713;28;19973;-75
2022/04/12 14:09:09;;;;;;;;;;;;;;;24.37;21.94;99672.34;8398397;28;20048;-75
2022/04/12 14:13:10;;;;;;;;;;;;;;;24.54;21.00;99666.06;8397231;28;20007;-75
2022/04/12 14:17:11;;;;;;;;;;;;;;;23.17;21.50;99667.47;8397862;28;20116;-75
2022/04/12 14:21:12;;;;;;;;;;;;;;;23.03;21.13;99672.84;8398594;28;20457;-75
2022/04/12 14:25:13;;;;;;;;;;;;;;;22.46;21.82;99676.09;8398340;28;20015;-76
2022/04/12 14:29:14;;;;;;;;;;;;;;;22.46;21.91;99670.59;8398762;28;20036;-74
2022/04/12 14:33:15;;;;;;;;;;;;;;;22.30;21.97;99668.81;8395753;28;19991;-75
2022/04/12 14:37:16;;;;;;;;;;;;;;;23.11;21.47;99668.97;8396361;28;19971;-74
2022/04/12 14:41:16;;;;;;;;;;;;;;;23.19;21.63;99663.53;8397002;28;19971;-76
2022/04/12 14:45:18;;;;;;;;;;;;;;;22.35;22.28;99658.66;8376596;28;19972;-76
2022/04/12 14:49:18;;;;;;;;;;;;;;;21.97;23.09;99655.00;8396388;28;20414;-74
2022/04/12 14:53:21;;;;;;;;;;;;;;;21.11;23.89;99657.47;8396961;28;19991;-75
2022/04/12 14:57:22;;;;;;;;;;;;;;;21.84;23.44;99653.56;8397233;28;19978;-75
2022/04/12 15:01:24;;;;;;;;;;;;;;;21.84;23.42;99650.81;8394348;28;19976;-75
2022/04/12 15:05:25;;;;;;;;;;;;;;;20.47;24.06;99650.75;8396676;28;19982;-75
2022/04/12 15:09:26;;;;;;;;;;;;;;;21.04;24.45;99651.88;8411151;28;20001;-75
2022/04/12 15:13:27;;;;;;;;;;;;;;;21.69;23.81;99654.53;8388556;28;20086;-75
2022/04/12 15:17:28;;;;;;;;;;;;;;;21.66;22.95;99649.78;8383115;28;19971;-76
2022/04/12 15:21:29;;;;;;;;;;;;;;;22.36;22.88;99660.22;8380913;28;19997;-77
2022/04/12 15:25:30;;;;;;;;;;;;;;;20.67;24.10;99655.06;8378955;28;20017;-76
2022/04/12 15:29:30;;;;;;;;;;;;;;;22.11;23.26;99660.69;8395671;28;20013;-76
2022/04/12 15:33:31;;;;;;;;;;;;;;;22.68;22.89;99662.19;8395716;28;20420;-76
2022/04/12 15:37:32;;;;;;;;;;;;;;;22.25;23.42;99655.38;8369220;28;19978;-76
2022/04/12 15:41:33;;;;;;;;;;;;;;;21.77;23.25;99654.28;8360562;28;19976;-76
2022/04/12 15:45:33;;;;;;;;;;;;;;;21.17;24.16;99650.53;8360278;28;19975;-76
2022/04/12 15:49:34;;;;;;;;;;;;;;;20.56;24.65;99648.63;8380215;28;19971;-76
2022/04/12 15:53:38;;;;;;;;;;;;;;;18.42;27.03;99656.59;8385455;28;20017;-76
2022/04/12 15:57:42;;;;;;;;;;;;;;;17.49;28.42;99668.56;8393034;28;20024;-76
2022/04/12 16:01:42;;;;;;;;;;;;;;;16.93;29.26;99668.22;8405207;28;20007;-76
2022/04/12 16:05:43;;;;;;;;;;;;;;;16.97;29.91;99674.63;8394878;28;20054;-76
2022/04/12 16:09:44;;;;;;;;;;;;;;;16.38;30.54;99669.38;8395240;28;19999;-76
2022/04/12 16:13:45;;;;;;;;;;;;;;;16.12;30.98;99666.03;8357230;28;19986;-76
2022/04/12 16:17:46;;;;;;;;;;;;;;;16.20;31.46;99657.00;8394719;28;19982;-75
2022/04/12 16:21:47;;;;;;;;;;;;;;;16.40;31.48;99667.09;8394334;28;19982;-76
2022/04/12 16:25:51;;;;;;;;;;;;;;;16.29;31.91;99665.88;8387955;28;19971;-76
2022/04/12 16:29:55;;;;;;;;;;;;;;;16.22;32.05;99671.09;8406196;28;19968;-75
2022/04/12 16:33:56;;;;;;;;;;;;;;;16.12;31.78;99682.38;8393156;28;20473;-75
2022/04/12 16:38:01;;;;;;;;;;;;;;;16.07;32.20;99682.59;8393307;28;20013;-76
2022/04/12 16:42:01;;;;;;;;;;;;;;;15.98;31.97;99676.38;8360302;28;19975;-77
2022/04/12 16:46:02;;;;;;;;;;;;;;;15.79;32.11;99681.47;8387553;28;19982;-76
2022/04/12 16:50:05;;;;;;;;;;;;;;;15.76;32.21;99684.81;8393054;28;20029;-75
2022/04/12 16:54:06;;;;;;;;;;;;;;;15.61;32.53;99687.00;8393023;28;19991;-73
2022/04/12 16:58:08;;;;;;;;;;;;;;;15.25;32.81;99686.63;8392624;28;19971;-75
2022/04/12 17:02:11;;;;;;;;;;;;;;;14.80;33.14;99692.47;8392573;28;20490;-75
2022/04/12 17:06:11;;;;;;;;;;;;;;;14.60;33.95;99693.16;8384398;28;19971;-74
2022/04/12 17:10:12;;;;;;;;;;;;;;;14.44;33.86;99694.75;8392307;28;20013;-74
2022/04/12 17:14:13;;;;;;;;;;;;;;;14.17;34.18;99692.34;8392136;28;19997;-74
2022/04/12 17:18:14;;;;;;;;;;;;;;;13.76;34.67;99690.78;8391505;28;20160;-75
2022/04/12 17:22:15;;;;;;;;;;;;;;;13.49;34.75;99689.09;8391174;28;19971;-75
2022/04/12 17:26:17;;;;;;;;;;;;;;;13.21;35.24;99695.06;8393671;28;20457;-75
2022/04/12 17:30:18;;;;;;;;;;;;;;;12.93;35.83;99694.38;8393228;28;20187;-75
2022/04/12 17:34:22;;;;;;;;;;;;;;;12.68;36.45;99693.09;8363582;28;20735;-74
2022/04/12 17:38:22;;;;;;;;;;;;;;;12.40;37.32;99691.59;8377872;28;20015;-74
2022/04/12 17:42:23;;;;;;;;;;;;;;;12.16;37.40;99686.47;8394214;28;20006;-74
2022/04/12 17:46:24;;;;;;;;;;;;;;;11.94;37.99;99706.16;8397487;28;20033;-74
2022/04/12 17:50:26;;;;;;;;;;;;;;;11.66;38.29;99709.94;8393148;28;19971;-74
2022/04/12 17:54:27;;;;;;;;;;;;;;;11.50;38.86;99700.53;8374597;28;20026;-74
2022/04/12 17:58:28;;;;;;;;;;;;;;;11.27;39.33;99708.50;8397192;28;19967;-75
2022/04/12 18:02:29;;;;;;;;;;;;;;;11.09;40.08;99695.88;8397448;28;20453;-74
2022/04/12 18:06:30;;;;;;;;;;;;;;;10.86;40.02;99702.22;8396040;28;20006;-74
2022/04/12 18:10:31;;;;;;;;;;;;;;;10.73;40.30;99697.59;8397369;28;20524;-75
2022/04/12 18:14:32;;;;;;;;;;;;;;;10.59;40.35;99714.53;8397956;28;20021;-74
2022/04/12 18:18:34;;;;;;;;;;;;;;;10.49;40.15;99714.69;8346361;28;19975;-74
2022/04/12 18:22:35;;;;;;;;;;;;;;;10.39;40.29;99714.84;8397564;28;20062;-75
2022/04/12 18:26:38;;;;;;;;;;;;;;;10.24;40.38;99717.75;8397579;28;19971;-75
2022/04/12 18:30:40;;;;;;;;;;;;;;;10.16;40.16;99721.09;8398038;28;20455;-75
2022/04/12 18:34:40;;;;;;;;;;;;;;;10.10;40.11;99716.81;8397184;28;19991;-75
2022/04/12 18:38:41;;;;;;;;;;;;;;;9.99;39.95;99705.34;8394986;28;19975;-75
2022/04/12 18:42:43;;;;;;;;;;;;;;;9.92;39.98;99710.34;8396308;28;20514;-74
2022/04/12 18:46:44;;;;;;;;;;;;;;;9.81;40.13;99713.44;8394925;28;19967;-75
2022/04/12 18:50:45;;;;;;;;;;;;;;;9.71;40.17;99715.19;8392321;28;20065;-74
2022/04/12 18:54:46;;;;;;;;;;;;;;;9.68;39.90;99714.94;8394359;28;19987;-75
2022/04/12 18:58:47;;;;;;;;;;;;;;;9.59;39.86;99728.25;8379651;28;19982;-75
2022/04/12 19:02:49;;;;;;;;;;;;;;;9.54;39.81;99736.41;8386542;28;19995;-74
2022/04/12 19:06:54;;;;;;;;;;;;;;;9.51;39.47;99736.97;8407060;28;19970;-74
2022/04/12 19:10:56;;;;;;;;;;;;;;;9.44;39.50;99725.72;8415875;28;19987;-75
2022/04/12 19:14:57;;;;;;;;;;;;;;;9.30;39.82;99724.81;8375567;28;19987;-74
2022/04/12 19:18:59;;;;;;;;;;;;;;;9.32;39.73;99730.69;8388134;28;19971;-75
2022/04/12 19:23:00;;;;;;;;;;;;;;;9.23;39.87;99729.72;8417625;28;19967;-75
2022/04/12 19:27:02;;;;;;;;;;;;;;;9.18;39.86;99727.06;8414651;28;20065;-75
2022/04/12 19:31:03;;;;;;;;;;;;;;;9.12;39.91;99738.97;8422135;28;19970;-74
2022/04/12 19:35:08;;;;;;;;;;;;;;;9.17;40.08;99736.25;8414553;28;19994;-75
2022/04/12 19:39:09;;;;;;;;;;;;;;;9.05;40.39;99741.19;8425157;28;19968;-74
2022/04/12 19:43:10;;;;;;;;;;;;;;;9.04;40.49;99742.31;8394050;28;19978;-74
2022/04/12 19:47:11;;;;;;;;;;;;;;;9.00;40.67;99743.94;8392220;28;20078;-74
2022/04/12 19:51:16;;;;;;;;;;;;;;;8.94;41.01;99747.75;8398111;28;19978;-74
2022/04/12 19:55:19;;;;;;;;;;;;;;;8.93;40.82;99740.78;8397257;28;19989;-74
2022/04/12 19:59:20;;;;;;;;;;;;;;;8.86;40.78;99741.91;8391922;28;19974;-74
2022/04/12 20:03:23;;;;;;;;;;;;;;;8.80;41.37;99743.03;8392995;28;20434;-75
2022/04/12 20:07:24;;;;;;;;;;;;;;;8.75;42.12;99743.06;8396428;28;19985;-74
2022/04/12 20:11:25;;;;;;;;;;;;;;;8.74;42.00;99748.72;8410905;28;19995;-74
2022/04/12 20:15:27;;;;;;;;;;;;;;;8.66;42.38;99747.44;8397930;28;19983;-74
2022/04/12 20:19:27;;;;;;;;;;;;;;;8.71;42.72;99747.41;8396572;28;20518;-75
2022/04/12 20:23:28;;;;;;;;;;;;;;;8.70;42.40;99737.72;8400292;28;19974;-75
2022/04/12 20:27:29;;;;;;;;;;;;;;;8.60;43.19;99736.97;8401217;28;19967;-74
2022/04/12 20:31:30;;;;;;;;;;;;;;;8.59;42.72;99732.69;8402522;28;20114;-74
2022/04/12 20:35:32;;;;;;;;;;;;;;;8.50;42.95;99726.28;8399594;28;20013;-74
2022/04/12 20:39:33;;;;;;;;;;;;;;;8.33;43.30;99726.66;8404479;28;19974;-74
2022/04/12 20:43:34;;;;;;;;;;;;;;;8.26;43.40;99732.31;8375853;28;19967;-74
2022/04/12 20:47:37;;;;;;;;;;;;;;;8.12;43.57;99730.53;8409110;28;20389;-74
2022/04/12 20:51:41;;;;;;;;;;;;;;;8.13;43.95;99732.13;8389680;28;20075;-74
2022/04/12 20:55:42;;;;;;;;;;;;;;;8.05;43.91;99737.00;8379350;28;19987;-74
2022/04/12 20:59:45;;;;;;;;;;;;;;;8.04;44.18;99729.19;8388615;28;20017;-74
2022/04/12 21:03:45;;;;;;;;;;;;;;;7.97;44.30;99732.22;8391093;28;20078;-75